sensor_id;sensor_type;location;lat;lon;timestamp;P1;durP1;ratioP1;P2;durP2;ratioP2
16824;SDS011;8529;48.108;-1.706;2023-10-31T00:01:05;5.47;;;2.40;;
16824;SDS011;8529;48.108;-1.706;2023-10-31T00:03:32;4.20;;;2.78;;
16824;SDS011;8529;48.108;-1.706;2023-10-31T00:05:59;6.90;;;2.55;;
16824;SDS011;8529;48.108;-1.706;2023-10-31T00:08:26;3.42;;;2.25;;
16824;SDS011;8529;48.108;-1.706;2023-10-31T00:10:53;5.50;;;2.90;;
16824;SDS011;8529;48.108;-1.706;2023-10-31T00:13:19;8.10;;;3.03;;
16824;SDS011;8529;48.108;-1.706;2023-10-31T00:15:48;5.68;;;2.50;;
16824;SDS011;8529;48.108;-1.706;2023-10-31T00:18:15;6.15;;;2.47;;
16824;SDS011;8529;48.108;-1.706;2023-10-31T00:20:41;4.32;;;2.38;;
16824;SDS011;8529;48.108;-1.706;2023-10-31T00:23:08;6.32;;;2.60;;
16824;SDS011;8529;48.108;-1.706;2023-10-31T00:25:35;9.90;;;2.55;;
16824;SDS011;8529;48.108;-1.706;2023-10-31T00:28:02;9.57;;;2.80;;
16824;SDS011;8529;48.108;-1.706;2023-10-31T00:30:29;5.90;;;2.67;;
16824;SDS011;8529;48.108;-1.706;2023-10-31T00:32:58;7.65;;;2.65;;
16824;SDS011;8529;48.108;-1.706;2023-10-31T00:35:25;4.25;;;2.80;;
16824;SDS011;8529;48.108;-1.706;2023-10-31T00:37:51;8.27;;;3.22;;
16824;SDS011;8529;48.108;-1.706;2023-10-31T00:40:18;4.55;;;2.92;;
16824;SDS011;8529;48.108;-1.706;2023-10-31T00:42:45;5.40;;;2.95;;
16824;SDS011;8529;48.108;-1.706;2023-10-31T00:45:12;5.10;;;2.70;;
16824;SDS011;8529;48.108;-1.706;2023-10-31T00:47:39;9.85;;;2.60;;
16824;SDS011;8529;48.108;-1.706;2023-10-31T00:50:08;5.25;;;2.58;;
16824;SDS011;8529;48.108;-1.706;2023-10-31T00:52:35;6.18;;;3.40;;
16824;SDS011;8529;48.108;-1.706;2023-10-31T00:55:02;9.30;;;2.67;;
16824;SDS011;8529;48.108;-1.706;2023-10-31T00:57:29;10.63;;;2.83;;
16824;SDS011;8529;48.108;-1.706;2023-10-31T00:59:56;6.15;;;2.85;;
16824;SDS011;8529;48.108;-1.706;2023-10-31T01:02:23;9.05;;;3.22;;
16824;SDS011;8529;48.108;-1.706;2023-10-31T01:04:50;8.32;;;3.38;;
16824;SDS011;8529;48.108;-1.706;2023-10-31T01:07:18;9.32;;;2.83;;
16824;SDS011;8529;48.108;-1.706;2023-10-31T01:09:45;6.70;;;3.40;;
16824;SDS011;8529;48.108;-1.706;2023-10-31T01:12:11;4.68;;;3.00;;
16824;SDS011;8529;48.108;-1.706;2023-10-31T01:14:38;12.93;;;3.40;;
16824;SDS011;8529;48.108;-1.706;2023-10-31T01:17:05;6.57;;;2.63;;
16824;SDS011;8529;48.108;-1.706;2023-10-31T01:19:32;9.07;;;2.72;;
16824;SDS011;8529;48.108;-1.706;2023-10-31T01:21:59;11.40;;;2.92;;
16824;SDS011;8529;48.108;-1.706;2023-10-31T01:24:27;10.25;;;3.42;;
16824;SDS011;8529;48.108;-1.706;2023-10-31T01:26:54;8.18;;;3.08;;
16824;SDS011;8529;48.108;-1.706;2023-10-31T01:29:21;6.30;;;2.85;;
16824;SDS011;8529;48.108;-1.706;2023-10-31T01:31:47;8.55;;;2.90;;
16824;SDS011;8529;48.108;-1.706;2023-10-31T01:34:14;6.55;;;2.72;;
16824;SDS011;8529;48.108;-1.706;2023-10-31T01:36:41;6.90;;;3.40;;
16824;SDS011;8529;48.108;-1.706;2023-10-31T01:39:08;6.15;;;2.70;;
16824;SDS011;8529;48.108;-1.706;2023-10-31T01:41:36;5.68;;;2.58;;
16824;SDS011;8529;48.108;-1.706;2023-10-31T01:44:03;9.82;;;2.75;;
16824;SDS011;8529;48.108;-1.706;2023-10-31T01:46:30;7.70;;;2.85;;
16824;SDS011;8529;48.108;-1.706;2023-10-31T01:48:57;8.63;;;3.08;;
16824;SDS011;8529;48.108;-1.706;2023-10-31T01:51:24;5.88;;;2.40;;
16824;SDS011;8529;48.108;-1.706;2023-10-31T01:53:51;10.02;;;2.83;;
16824;SDS011;8529;48.108;-1.706;2023-10-31T01:56:19;5.85;;;2.15;;
16824;SDS011;8529;48.108;-1.706;2023-10-31T01:58:48;7.95;;;2.85;;
16824;SDS011;8529;48.108;-1.706;2023-10-31T02:01:15;6.57;;;2.63;;
16824;SDS011;8529;48.108;-1.706;2023-10-31T02:03:42;9.07;;;2.83;;
16824;SDS011;8529;48.108;-1.706;2023-10-31T02:06:09;7.88;;;3.45;;
16824;SDS011;8529;48.108;-1.706;2023-10-31T02:08:36;5.90;;;2.72;;
16824;SDS011;8529;48.108;-1.706;2023-10-31T02:11:03;6.75;;;2.70;;
16824;SDS011;8529;48.108;-1.706;2023-10-31T02:13:35;5.40;;;2.72;;
16824;SDS011;8529;48.108;-1.706;2023-10-31T02:16:04;8.38;;;2.67;;
16824;SDS011;8529;48.108;-1.706;2023-10-31T02:18:31;7.43;;;3.58;;
16824;SDS011;8529;48.108;-1.706;2023-10-31T02:20:58;5.30;;;2.38;;
16824;SDS011;8529;48.108;-1.706;2023-10-31T02:23:26;5.30;;;2.55;;
16824;SDS011;8529;48.108;-1.706;2023-10-31T02:25:53;7.47;;;3.05;;
16824;SDS011;8529;48.108;-1.706;2023-10-31T02:28:20;7.75;;;3.22;;
16824;SDS011;8529;48.108;-1.706;2023-10-31T02:30:47;7.25;;;3.00;;
16824;SDS011;8529;48.108;-1.706;2023-10-31T02:33:13;7.07;;;3.20;;
16824;SDS011;8529;48.108;-1.706;2023-10-31T02:35:40;6.63;;;2.92;;
16824;SDS011;8529;48.108;-1.706;2023-10-31T02:38:07;10.60;;;3.33;;
16824;SDS011;8529;48.108;-1.706;2023-10-31T02:40:35;8.52;;;2.50;;
16824;SDS011;8529;48.108;-1.706;2023-10-31T02:43:02;8.93;;;2.80;;
16824;SDS011;8529;48.108;-1.706;2023-10-31T02:45:29;8.30;;;2.95;;
16824;SDS011;8529;48.108;-1.706;2023-10-31T02:47:56;6.30;;;2.65;;
16824;SDS011;8529;48.108;-1.706;2023-10-31T02:50:23;5.88;;;2.63;;
16824;SDS011;8529;48.108;-1.706;2023-10-31T02:52:50;6.60;;;3.10;;
16824;SDS011;8529;48.108;-1.706;2023-10-31T02:55:17;5.30;;;2.60;;
16824;SDS011;8529;48.108;-1.706;2023-10-31T02:57:45;7.85;;;2.35;;
16824;SDS011;8529;48.108;-1.706;2023-10-31T03:00:12;9.32;;;2.75;;
16824;SDS011;8529;48.108;-1.706;2023-10-31T03:02:40;6.55;;;2.60;;
16824;SDS011;8529;48.108;-1.706;2023-10-31T03:05:06;7.95;;;2.45;;
16824;SDS011;8529;48.108;-1.706;2023-10-31T03:07:33;4.47;;;2.30;;
16824;SDS011;8529;48.108;-1.706;2023-10-31T03:10:00;6.82;;;2.50;;
16824;SDS011;8529;48.108;-1.706;2023-10-31T03:12:28;6.28;;;2.50;;
16824;SDS011;8529;48.108;-1.706;2023-10-31T03:14:56;4.97;;;2.22;;
16824;SDS011;8529;48.108;-1.706;2023-10-31T03:17:23;4.05;;;2.58;;
16824;SDS011;8529;48.108;-1.706;2023-10-31T03:19:53;5.40;;;2.38;;
16824;SDS011;8529;48.108;-1.706;2023-10-31T03:22:19;7.10;;;2.55;;
16824;SDS011;8529;48.108;-1.706;2023-10-31T03:24:46;6.22;;;2.20;;
16824;SDS011;8529;48.108;-1.706;2023-10-31T03:27:13;6.13;;;2.20;;
16824;SDS011;8529;48.108;-1.706;2023-10-31T03:29:40;5.25;;;1.92;;
16824;SDS011;8529;48.108;-1.706;2023-10-31T03:32:08;6.18;;;2.25;;
16824;SDS011;8529;48.108;-1.706;2023-10-31T03:34:35;7.32;;;2.10;;
16824;SDS011;8529;48.108;-1.706;2023-10-31T03:37:02;5.07;;;2.33;;
16824;SDS011;8529;48.108;-1.706;2023-10-31T03:39:29;4.43;;;2.13;;
16824;SDS011;8529;48.108;-1.706;2023-10-31T03:41:56;5.50;;;2.08;;
16824;SDS011;8529;48.108;-1.706;2023-10-31T03:44:23;6.57;;;2.75;;
16824;SDS011;8529;48.108;-1.706;2023-10-31T03:46:50;5.72;;;1.88;;
16824;SDS011;8529;48.108;-1.706;2023-10-31T03:49:18;7.07;;;2.40;;
16824;SDS011;8529;48.108;-1.706;2023-10-31T03:51:45;5.05;;;2.38;;
16824;SDS011;8529;48.108;-1.706;2023-10-31T03:54:12;6.72;;;1.90;;
16824;SDS011;8529;48.108;-1.706;2023-10-31T03:56:39;5.82;;;1.73;;
16824;SDS011;8529;48.108;-1.706;2023-10-31T03:59:06;3.50;;;1.48;;
16824;SDS011;8529;48.108;-1.706;2023-10-31T04:01:33;9.98;;;1.92;;
16824;SDS011;8529;48.108;-1.706;2023-10-31T04:04:00;4.97;;;2.03;;
16824;SDS011;8529;48.108;-1.706;2023-10-31T04:06:28;6.10;;;2.60;;
16824;SDS011;8529;48.108;-1.706;2023-10-31T04:08:55;7.65;;;1.90;;
16824;SDS011;8529;48.108;-1.706;2023-10-31T04:11:21;6.10;;;1.77;;
16824;SDS011;8529;48.108;-1.706;2023-10-31T04:13:47;7.45;;;1.80;;
16824;SDS011;8529;48.108;-1.706;2023-10-31T04:16:14;6.03;;;2.03;;
16824;SDS011;8529;48.108;-1.706;2023-10-31T04:18:42;5.03;;;1.70;;
16824;SDS011;8529;48.108;-1.706;2023-10-31T04:21:09;7.78;;;1.80;;
16824;SDS011;8529;48.108;-1.706;2023-10-31T04:23:37;2.75;;;1.50;;
16824;SDS011;8529;48.108;-1.706;2023-10-31T04:26:04;3.38;;;1.42;;
16824;SDS011;8529;48.108;-1.706;2023-10-31T04:28:31;5.65;;;1.50;;
16824;SDS011;8529;48.108;-1.706;2023-10-31T04:30:57;5.82;;;1.52;;
16824;SDS011;8529;48.108;-1.706;2023-10-31T04:33:24;5.10;;;1.58;;
16824;SDS011;8529;48.108;-1.706;2023-10-31T04:35:51;5.07;;;1.60;;
16824;SDS011;8529;48.108;-1.706;2023-10-31T04:38:18;5.38;;;1.40;;
16824;SDS011;8529;48.108;-1.706;2023-10-31T04:40:46;4.45;;;1.50;;
16824;SDS011;8529;48.108;-1.706;2023-10-31T04:43:13;7.28;;;1.38;;
16824;SDS011;8529;48.108;-1.706;2023-10-31T04:45:40;4.38;;;1.50;;
16824;SDS011;8529;48.108;-1.706;2023-10-31T04:48:06;5.53;;;1.45;;
16824;SDS011;8529;48.108;-1.706;2023-10-31T04:50:33;4.60;;;1.80;;
16824;SDS011;8529;48.108;-1.706;2023-10-31T04:53:00;4.10;;;1.25;;
16824;SDS011;8529;48.108;-1.706;2023-10-31T04:55:27;3.85;;;1.45;;
16824;SDS011;8529;48.108;-1.706;2023-10-31T04:57:55;6.57;;;1.42;;
16824;SDS011;8529;48.108;-1.706;2023-10-31T05:00:23;2.10;;;1.27;;
16824;SDS011;8529;48.108;-1.706;2023-10-31T05:02:50;3.05;;;1.15;;
16824;SDS011;8529;48.108;-1.706;2023-10-31T05:05:16;3.67;;;1.42;;
16824;SDS011;8529;48.108;-1.706;2023-10-31T05:07:44;4.10;;;1.30;;
16824;SDS011;8529;48.108;-1.706;2023-10-31T05:10:11;3.85;;;1.50;;
16824;SDS011;8529;48.108;-1.706;2023-10-31T05:12:38;4.25;;;0.90;;
16824;SDS011;8529;48.108;-1.706;2023-10-31T05:15:07;4.63;;;1.38;;
16824;SDS011;8529;48.108;-1.706;2023-10-31T05:17:34;6.53;;;1.20;;
16824;SDS011;8529;48.108;-1.706;2023-10-31T05:20:01;3.25;;;1.08;;
16824;SDS011;8529;48.108;-1.706;2023-10-31T05:22:28;7.22;;;2.20;;
16824;SDS011;8529;48.108;-1.706;2023-10-31T05:24:55;1.63;;;1.00;;
16824;SDS011;8529;48.108;-1.706;2023-10-31T05:27:22;4.18;;;1.17;;
16824;SDS011;8529;48.108;-1.706;2023-10-31T05:29:49;3.42;;;1.23;;
16824;SDS011;8529;48.108;-1.706;2023-10-31T05:32:17;3.97;;;1.10;;
16824;SDS011;8529;48.108;-1.706;2023-10-31T05:34:44;1.27;;;0.85;;
16824;SDS011;8529;48.108;-1.706;2023-10-31T05:37:11;5.20;;;1.13;;
16824;SDS011;8529;48.108;-1.706;2023-10-31T05:39:38;3.00;;;1.30;;
16824;SDS011;8529;48.108;-1.706;2023-10-31T05:42:05;2.45;;;1.05;;
16824;SDS011;8529;48.108;-1.706;2023-10-31T05:44:32;2.75;;;1.05;;
16824;SDS011;8529;48.108;-1.706;2023-10-31T05:46:58;2.53;;;1.40;;
16824;SDS011;8529;48.108;-1.706;2023-10-31T05:49:27;7.35;;;1.58;;
16824;SDS011;8529;48.108;-1.706;2023-10-31T05:51:55;2.28;;;1.15;;
16824;SDS011;8529;48.108;-1.706;2023-10-31T05:54:22;2.38;;;1.35;;
16824;SDS011;8529;48.108;-1.706;2023-10-31T05:56:49;5.57;;;2.00;;
16824;SDS011;8529;48.108;-1.706;2023-10-31T05:59:16;4.53;;;1.52;;
16824;SDS011;8529;48.108;-1.706;2023-10-31T06:01:43;2.83;;;1.20;;
16824;SDS011;8529;48.108;-1.706;2023-10-31T06:04:10;1.35;;;0.90;;
16824;SDS011;8529;48.108;-1.706;2023-10-31T06:06:38;3.88;;;1.45;;
16824;SDS011;8529;48.108;-1.706;2023-10-31T06:09:05;2.30;;;1.00;;
16824;SDS011;8529;48.108;-1.706;2023-10-31T06:11:32;3.10;;;1.10;;
16824;SDS011;8529;48.108;-1.706;2023-10-31T06:13:59;3.28;;;1.02;;
16824;SDS011;8529;48.108;-1.706;2023-10-31T06:16:26;5.72;;;1.55;;
16824;SDS011;8529;48.108;-1.706;2023-10-31T06:18:53;6.07;;;1.20;;
16824;SDS011;8529;48.108;-1.706;2023-10-31T06:21:19;3.47;;;1.67;;
16824;SDS011;8529;48.108;-1.706;2023-10-31T06:23:48;3.03;;;1.33;;
16824;SDS011;8529;48.108;-1.706;2023-10-31T06:26:15;3.65;;;1.10;;
16824;SDS011;8529;48.108;-1.706;2023-10-31T06:28:42;2.17;;;0.98;;
16824;SDS011;8529;48.108;-1.706;2023-10-31T06:31:09;3.10;;;0.98;;
16824;SDS011;8529;48.108;-1.706;2023-10-31T06:33:35;7.85;;;1.48;;
16824;SDS011;8529;48.108;-1.706;2023-10-31T06:36:03;3.08;;;1.05;;
16824;SDS011;8529;48.108;-1.706;2023-10-31T06:38:31;4.28;;;1.35;;
16824;SDS011;8529;48.108;-1.706;2023-10-31T06:40:59;6.93;;;1.80;;
16824;SDS011;8529;48.108;-1.706;2023-10-31T06:43:26;3.85;;;1.40;;
16824;SDS011;8529;48.108;-1.706;2023-10-31T06:45:54;3.72;;;1.25;;
16824;SDS011;8529;48.108;-1.706;2023-10-31T06:48:22;3.78;;;1.17;;
16824;SDS011;8529;48.108;-1.706;2023-10-31T06:50:48;6.85;;;1.60;;
16824;SDS011;8529;48.108;-1.706;2023-10-31T06:53:15;4.65;;;1.42;;
16824;SDS011;8529;48.108;-1.706;2023-10-31T06:55:42;3.58;;;1.33;;
16824;SDS011;8529;48.108;-1.706;2023-10-31T06:58:10;3.17;;;1.63;;
16824;SDS011;8529;48.108;-1.706;2023-10-31T07:00:37;7.32;;;2.28;;
16824;SDS011;8529;48.108;-1.706;2023-10-31T07:03:04;3.85;;;1.40;;
16824;SDS011;8529;48.108;-1.706;2023-10-31T07:05:31;3.05;;;1.27;;
16824;SDS011;8529;48.108;-1.706;2023-10-31T07:07:58;6.13;;;1.92;;
16824;SDS011;8529;48.108;-1.706;2023-10-31T07:10:25;10.07;;;1.30;;
16824;SDS011;8529;48.108;-1.706;2023-10-31T07:12:52;3.97;;;1.40;;
16824;SDS011;8529;48.108;-1.706;2023-10-31T07:15:20;3.55;;;1.40;;
16824;SDS011;8529;48.108;-1.706;2023-10-31T07:17:47;5.30;;;1.63;;
16824;SDS011;8529;48.108;-1.706;2023-10-31T07:20:14;4.82;;;1.80;;
16824;SDS011;8529;48.108;-1.706;2023-10-31T07:22:41;6.03;;;1.70;;
16824;SDS011;8529;48.108;-1.706;2023-10-31T07:25:08;5.95;;;2.30;;
16824;SDS011;8529;48.108;-1.706;2023-10-31T07:27:35;8.98;;;4.13;;
16824;SDS011;8529;48.108;-1.706;2023-10-31T07:30:02;5.88;;;3.15;;
16824;SDS011;8529;48.108;-1.706;2023-10-31T07:32:32;10.85;;;6.00;;
16824;SDS011;8529;48.108;-1.706;2023-10-31T07:34:59;10.00;;;5.20;;
16824;SDS011;8529;48.108;-1.706;2023-10-31T07:37:26;9.55;;;4.20;;
16824;SDS011;8529;48.108;-1.706;2023-10-31T07:39:53;9.45;;;3.83;;
16824;SDS011;8529;48.108;-1.706;2023-10-31T07:42:20;7.15;;;3.70;;
16824;SDS011;8529;48.108;-1.706;2023-10-31T07:44:47;5.70;;;3.50;;
16824;SDS011;8529;48.108;-1.706;2023-10-31T07:47:15;8.20;;;3.20;;
16824;SDS011;8529;48.108;-1.706;2023-10-31T07:49:43;4.80;;;3.42;;
16824;SDS011;8529;48.108;-1.706;2023-10-31T07:52:10;6.38;;;2.97;;
16824;SDS011;8529;48.108;-1.706;2023-10-31T07:54:38;8.95;;;3.58;;
16824;SDS011;8529;48.108;-1.706;2023-10-31T07:57:05;6.93;;;2.65;;
16824;SDS011;8529;48.108;-1.706;2023-10-31T07:59:33;7.63;;;3.90;;
16824;SDS011;8529;48.108;-1.706;2023-10-31T08:01:59;12.35;;;5.68;;
16824;SDS011;8529;48.108;-1.706;2023-10-31T08:04:26;10.50;;;5.57;;
16824;SDS011;8529;48.108;-1.706;2023-10-31T08:06:56;9.07;;;5.32;;
16824;SDS011;8529;48.108;-1.706;2023-10-31T08:09:23;15.48;;;7.68;;
16824;SDS011;8529;48.108;-1.706;2023-10-31T08:11:50;12.50;;;7.70;;
16824;SDS011;8529;48.108;-1.706;2023-10-31T08:14:16;8.50;;;4.55;;
16824;SDS011;8529;48.108;-1.706;2023-10-31T08:16:44;6.28;;;3.05;;
16824;SDS011;8529;48.108;-1.706;2023-10-31T08:19:11;7.95;;;3.15;;
16824;SDS011;8529;48.108;-1.706;2023-10-31T08:21:38;5.55;;;1.90;;
16824;SDS011;8529;48.108;-1.706;2023-10-31T08:24:06;6.45;;;2.33;;
16824;SDS011;8529;48.108;-1.706;2023-10-31T08:26:34;11.98;;;2.25;;
16824;SDS011;8529;48.108;-1.706;2023-10-31T08:29:00;6.72;;;2.17;;
16824;SDS011;8529;48.108;-1.706;2023-10-31T08:31:28;16.30;;;3.83;;
16824;SDS011;8529;48.108;-1.706;2023-10-31T08:33:55;13.85;;;2.67;;
16824;SDS011;8529;48.108;-1.706;2023-10-31T08:36:21;13.63;;;2.38;;
16824;SDS011;8529;48.108;-1.706;2023-10-31T08:38:48;15.48;;;7.80;;
16824;SDS011;8529;48.108;-1.706;2023-10-31T08:41:16;9.20;;;3.05;;
16824;SDS011;8529;48.108;-1.706;2023-10-31T08:43:45;11.13;;;3.75;;
16824;SDS011;8529;48.108;-1.706;2023-10-31T08:46:12;12.48;;;2.60;;
16824;SDS011;8529;48.108;-1.706;2023-10-31T08:48:39;6.78;;;2.83;;
16824;SDS011;8529;48.108;-1.706;2023-10-31T08:51:06;10.55;;;2.90;;
16824;SDS011;8529;48.108;-1.706;2023-10-31T08:53:33;14.18;;;2.67;;
16824;SDS011;8529;48.108;-1.706;2023-10-31T08:55:59;10.48;;;2.90;;
16824;SDS011;8529;48.108;-1.706;2023-10-31T08:58:28;11.65;;;2.72;;
16824;SDS011;8529;48.108;-1.706;2023-10-31T09:00:55;13.52;;;4.30;;
16824;SDS011;8529;48.108;-1.706;2023-10-31T09:03:22;10.07;;;3.47;;
16824;SDS011;8529;48.108;-1.706;2023-10-31T09:05:49;14.70;;;2.90;;
16824;SDS011;8529;48.108;-1.706;2023-10-31T09:08:16;15.02;;;6.13;;
16824;SDS011;8529;48.108;-1.706;2023-10-31T09:10:43;9.55;;;2.58;;
16824;SDS011;8529;48.108;-1.706;2023-10-31T09:13:11;9.85;;;3.67;;
16824;SDS011;8529;48.108;-1.706;2023-10-31T09:15:40;10.27;;;2.95;;
16824;SDS011;8529;48.108;-1.706;2023-10-31T09:18:07;11.13;;;2.40;;
16824;SDS011;8529;48.108;-1.706;2023-10-31T09:20:34;10.32;;;2.88;;
16824;SDS011;8529;48.108;-1.706;2023-10-31T09:23:01;13.48;;;3.10;;
16824;SDS011;8529;48.108;-1.706;2023-10-31T09:25:28;7.03;;;2.67;;
16824;SDS011;8529;48.108;-1.706;2023-10-31T09:27:55;10.23;;;2.60;;
16824;SDS011;8529;48.108;-1.706;2023-10-31T09:30:24;8.35;;;2.70;;
16824;SDS011;8529;48.108;-1.706;2023-10-31T09:32:53;12.38;;;2.92;;
16824;SDS011;8529;48.108;-1.706;2023-10-31T09:35:20;13.00;;;2.50;;
16824;SDS011;8529;48.108;-1.706;2023-10-31T09:37:46;19.10;;;2.63;;
16824;SDS011;8529;48.108;-1.706;2023-10-31T09:40:14;11.43;;;2.60;;
16824;SDS011;8529;48.108;-1.706;2023-10-31T09:42:41;13.90;;;4.28;;
16824;SDS011;8529;48.108;-1.706;2023-10-31T09:45:10;7.95;;;3.05;;
16824;SDS011;8529;48.108;-1.706;2023-10-31T09:47:36;16.48;;;3.10;;
16824;SDS011;8529;48.108;-1.706;2023-10-31T09:50:05;10.82;;;2.42;;
16824;SDS011;8529;48.108;-1.706;2023-10-31T09:52:35;8.57;;;2.33;;
16824;SDS011;8529;48.108;-1.706;2023-10-31T09:55:02;12.80;;;2.72;;
16824;SDS011;8529;48.108;-1.706;2023-10-31T09:57:30;12.15;;;3.75;;
16824;SDS011;8529;48.108;-1.706;2023-10-31T09:59:57;9.02;;;2.00;;
16824;SDS011;8529;48.108;-1.706;2023-10-31T10:02:24;8.75;;;2.20;;
16824;SDS011;8529;48.108;-1.706;2023-10-31T10:04:51;13.25;;;3.38;;
16824;SDS011;8529;48.108;-1.706;2023-10-31T10:07:20;10.60;;;2.45;;
16824;SDS011;8529;48.108;-1.706;2023-10-31T10:09:46;9.57;;;2.63;;
16824;SDS011;8529;48.108;-1.706;2023-10-31T10:12:13;13.02;;;3.58;;
16824;SDS011;8529;48.108;-1.706;2023-10-31T10:14:41;9.38;;;2.35;;
16824;SDS011;8529;48.108;-1.706;2023-10-31T10:17:20;9.30;;;2.92;;
16824;SDS011;8529;48.108;-1.706;2023-10-31T10:19:48;8.45;;;2.25;;
16824;SDS011;8529;48.108;-1.706;2023-10-31T10:22:32;12.02;;;3.55;;
16824;SDS011;8529;48.108;-1.706;2023-10-31T10:24:58;14.38;;;3.28;;
16824;SDS011;8529;48.108;-1.706;2023-10-31T10:27:25;5.95;;;2.35;;
16824;SDS011;8529;48.108;-1.706;2023-10-31T10:29:52;10.68;;;2.25;;
16824;SDS011;8529;48.108;-1.706;2023-10-31T10:32:19;8.52;;;2.10;;
16824;SDS011;8529;48.108;-1.706;2023-10-31T10:34:46;15.30;;;2.30;;
16824;SDS011;8529;48.108;-1.706;2023-10-31T10:37:13;13.50;;;2.35;;
16824;SDS011;8529;48.108;-1.706;2023-10-31T10:39:42;16.98;;;3.13;;
16824;SDS011;8529;48.108;-1.706;2023-10-31T10:42:15;10.43;;;2.03;;
16824;SDS011;8529;48.108;-1.706;2023-10-31T10:44:44;11.65;;;2.35;;
16824;SDS011;8529;48.108;-1.706;2023-10-31T10:47:13;8.00;;;2.30;;
16824;SDS011;8529;48.108;-1.706;2023-10-31T10:49:41;8.75;;;3.00;;
16824;SDS011;8529;48.108;-1.706;2023-10-31T10:52:13;16.70;;;2.97;;
16824;SDS011;8529;48.108;-1.706;2023-10-31T10:54:48;13.18;;;2.97;;
16824;SDS011;8529;48.108;-1.706;2023-10-31T10:57:20;12.00;;;3.45;;
16824;SDS011;8529;48.108;-1.706;2023-10-31T11:00:03;8.93;;;2.53;;
16824;SDS011;8529;48.108;-1.706;2023-10-31T11:02:33;12.95;;;2.50;;
16824;SDS011;8529;48.108;-1.706;2023-10-31T11:05:02;11.30;;;2.53;;
16824;SDS011;8529;48.108;-1.706;2023-10-31T11:07:31;12.43;;;2.33;;
16824;SDS011;8529;48.108;-1.706;2023-10-31T11:10:01;10.38;;;2.63;;
16824;SDS011;8529;48.108;-1.706;2023-10-31T11:12:30;11.77;;;2.67;;
16824;SDS011;8529;48.108;-1.706;2023-10-31T11:14:57;9.70;;;2.35;;
16824;SDS011;8529;48.108;-1.706;2023-10-31T11:17:26;7.55;;;2.10;;
16824;SDS011;8529;48.108;-1.706;2023-10-31T11:19:55;8.75;;;1.98;;
16824;SDS011;8529;48.108;-1.706;2023-10-31T11:22:22;5.03;;;1.85;;
16824;SDS011;8529;48.108;-1.706;2023-10-31T11:24:49;9.88;;;2.00;;
16824;SDS011;8529;48.108;-1.706;2023-10-31T11:27:18;11.05;;;2.28;;
16824;SDS011;8529;48.108;-1.706;2023-10-31T11:29:46;15.18;;;2.47;;
16824;SDS011;8529;48.108;-1.706;2023-10-31T11:32:14;6.22;;;2.03;;
16824;SDS011;8529;48.108;-1.706;2023-10-31T11:34:41;11.00;;;1.80;;
16824;SDS011;8529;48.108;-1.706;2023-10-31T11:37:18;11.88;;;2.90;;
16824;SDS011;8529;48.108;-1.706;2023-10-31T11:42:46;13.60;;;2.17;;
16824;SDS011;8529;48.108;-1.706;2023-10-31T11:45:23;7.90;;;1.67;;
16824;SDS011;8529;48.108;-1.706;2023-10-31T11:47:52;9.80;;;2.03;;
16824;SDS011;8529;48.108;-1.706;2023-10-31T11:50:19;6.63;;;2.15;;
16824;SDS011;8529;48.108;-1.706;2023-10-31T11:52:46;13.25;;;2.10;;
16824;SDS011;8529;48.108;-1.706;2023-10-31T11:55:25;6.72;;;2.47;;
16824;SDS011;8529;48.108;-1.706;2023-10-31T11:57:53;14.40;;;2.40;;
16824;SDS011;8529;48.108;-1.706;2023-10-31T12:00:20;9.65;;;2.60;;
16824;SDS011;8529;48.108;-1.706;2023-10-31T12:02:56;10.60;;;2.20;;
16824;SDS011;8529;48.108;-1.706;2023-10-31T12:05:24;11.60;;;2.70;;
16824;SDS011;8529;48.108;-1.706;2023-10-31T12:07:51;7.57;;;2.40;;
16824;SDS011;8529;48.108;-1.706;2023-10-31T12:10:22;8.10;;;2.22;;
16824;SDS011;8529;48.108;-1.706;2023-10-31T12:12:49;10.68;;;2.22;;
16824;SDS011;8529;48.108;-1.706;2023-10-31T12:15:17;11.70;;;2.65;;
16824;SDS011;8529;48.108;-1.706;2023-10-31T12:17:44;13.55;;;2.20;;
16824;SDS011;8529;48.108;-1.706;2023-10-31T12:20:11;8.13;;;1.73;;
16824;SDS011;8529;48.108;-1.706;2023-10-31T12:22:38;9.23;;;2.45;;
16824;SDS011;8529;48.108;-1.706;2023-10-31T12:25:06;7.38;;;2.03;;
16824;SDS011;8529;48.108;-1.706;2023-10-31T12:27:44;9.23;;;2.00;;
16824;SDS011;8529;48.108;-1.706;2023-10-31T12:30:11;7.50;;;1.88;;
16824;SDS011;8529;48.108;-1.706;2023-10-31T12:32:41;14.02;;;2.78;;
16824;SDS011;8529;48.108;-1.706;2023-10-31T12:35:08;8.95;;;1.95;;
16824;SDS011;8529;48.108;-1.706;2023-10-31T12:37:40;7.97;;;1.88;;
16824;SDS011;8529;48.108;-1.706;2023-10-31T12:40:10;11.15;;;2.28;;
16824;SDS011;8529;48.108;-1.706;2023-10-31T12:42:39;12.23;;;2.92;;
16824;SDS011;8529;48.108;-1.706;2023-10-31T12:45:07;9.88;;;1.88;;
16824;SDS011;8529;48.108;-1.706;2023-10-31T12:47:34;16.38;;;2.38;;
16824;SDS011;8529;48.108;-1.706;2023-10-31T12:50:07;7.57;;;2.47;;
16824;SDS011;8529;48.108;-1.706;2023-10-31T12:52:46;14.27;;;2.45;;
16824;SDS011;8529;48.108;-1.706;2023-10-31T12:55:14;9.60;;;2.60;;
16824;SDS011;8529;48.108;-1.706;2023-10-31T12:57:41;11.30;;;2.25;;
16824;SDS011;8529;48.108;-1.706;2023-10-31T13:00:09;10.55;;;2.58;;
16824;SDS011;8529;48.108;-1.706;2023-10-31T13:02:38;8.35;;;2.35;;
16824;SDS011;8529;48.108;-1.706;2023-10-31T13:05:10;12.48;;;3.05;;
16824;SDS011;8529;48.108;-1.706;2023-10-31T13:07:38;8.45;;;2.33;;
16824;SDS011;8529;48.108;-1.706;2023-10-31T13:10:06;12.52;;;2.80;;
16824;SDS011;8529;48.108;-1.706;2023-10-31T13:12:35;12.70;;;3.90;;
16824;SDS011;8529;48.108;-1.706;2023-10-31T13:15:02;9.10;;;2.13;;
16824;SDS011;8529;48.108;-1.706;2023-10-31T13:17:30;9.88;;;2.70;;
16824;SDS011;8529;48.108;-1.706;2023-10-31T13:19:58;10.90;;;2.00;;
16824;SDS011;8529;48.108;-1.706;2023-10-31T13:22:26;12.15;;;2.38;;
16824;SDS011;8529;48.108;-1.706;2023-10-31T13:24:53;9.55;;;2.47;;
16824;SDS011;8529;48.108;-1.706;2023-10-31T13:27:20;11.43;;;3.78;;
16824;SDS011;8529;48.108;-1.706;2023-10-31T13:29:47;13.63;;;2.30;;
16824;SDS011;8529;48.108;-1.706;2023-10-31T13:32:15;11.13;;;2.30;;
16824;SDS011;8529;48.108;-1.706;2023-10-31T13:34:42;13.43;;;2.85;;
16824;SDS011;8529;48.108;-1.706;2023-10-31T13:37:09;9.93;;;2.25;;
16824;SDS011;8529;48.108;-1.706;2023-10-31T13:39:37;9.68;;;3.65;;
16824;SDS011;8529;48.108;-1.706;2023-10-31T13:42:04;10.55;;;2.28;;
16824;SDS011;8529;48.108;-1.706;2023-10-31T13:44:32;11.60;;;3.00;;
16824;SDS011;8529;48.108;-1.706;2023-10-31T13:46:59;12.63;;;2.42;;
16824;SDS011;8529;48.108;-1.706;2023-10-31T13:49:26;9.73;;;2.45;;
16824;SDS011;8529;48.108;-1.706;2023-10-31T13:51:53;16.17;;;2.85;;
16824;SDS011;8529;48.108;-1.706;2023-10-31T13:54:20;13.68;;;2.55;;
16824;SDS011;8529;48.108;-1.706;2023-10-31T13:56:48;12.52;;;2.90;;
16824;SDS011;8529;48.108;-1.706;2023-10-31T13:59:15;14.20;;;2.92;;
16824;SDS011;8529;48.108;-1.706;2023-10-31T14:01:43;12.15;;;3.22;;
16824;SDS011;8529;48.108;-1.706;2023-10-31T14:04:11;10.27;;;2.67;;
16824;SDS011;8529;48.108;-1.706;2023-10-31T14:06:39;11.45;;;2.60;;
16824;SDS011;8529;48.108;-1.706;2023-10-31T14:09:07;11.93;;;2.22;;
16824;SDS011;8529;48.108;-1.706;2023-10-31T14:11:36;10.25;;;2.30;;
16824;SDS011;8529;48.108;-1.706;2023-10-31T14:14:05;7.95;;;2.50;;
16824;SDS011;8529;48.108;-1.706;2023-10-31T14:16:34;12.20;;;2.72;;
16824;SDS011;8529;48.108;-1.706;2023-10-31T14:19:01;14.05;;;2.50;;
16824;SDS011;8529;48.108;-1.706;2023-10-31T14:21:28;12.40;;;2.63;;
16824;SDS011;8529;48.108;-1.706;2023-10-31T14:23:55;16.00;;;3.17;;
16824;SDS011;8529;48.108;-1.706;2023-10-31T14:26:22;11.00;;;2.20;;
16824;SDS011;8529;48.108;-1.706;2023-10-31T14:28:50;10.95;;;2.92;;
16824;SDS011;8529;48.108;-1.706;2023-10-31T14:31:18;13.60;;;2.72;;
16824;SDS011;8529;48.108;-1.706;2023-10-31T14:33:46;11.43;;;2.90;;
16824;SDS011;8529;48.108;-1.706;2023-10-31T14:36:13;15.77;;;3.88;;
16824;SDS011;8529;48.108;-1.706;2023-10-31T14:38:40;13.00;;;2.40;;
16824;SDS011;8529;48.108;-1.706;2023-10-31T14:41:07;8.70;;;2.40;;
16824;SDS011;8529;48.108;-1.706;2023-10-31T14:43:34;10.52;;;2.30;;
16824;SDS011;8529;48.108;-1.706;2023-10-31T14:46:02;9.93;;;2.20;;
16824;SDS011;8529;48.108;-1.706;2023-10-31T14:48:31;8.40;;;2.38;;